KCMY/CMY METAR and TAF weather

Enter ICAO airport designator
Station Type Date Time Source
KCMY METAR 2018/01/19 22:55 UTC NOAA

KCMY 192255Z AUTO 22005KT 10SM CLR 05/M02 A2956 RMK AO2 T00521023


Station Type Date Time Source
KCMY Decoded METAR 2018/01/19 22:55 UTC NOAA

Sparta, Sparta / Fort McCoy Airport, WI, United States (KCMY) 43-57-30N 090-44-16W
Jan 19, 2018 - 05:55 PM EST / 2018.01.19 2255 UTC
Wind: from the SW (220 degrees) at 6 MPH (5 KT):0
Visibility: 10 mile(s):0
Sky conditions: clear
Temperature: 41.4 F (5.2 C)
Dew Point: 27.9 F (-2.3 C)
Relative Humidity: 58%
Pressure (altimeter): 29.56 in. Hg (1001 hPa)
ob: KCMY 192255Z AUTO 22005KT 10SM CLR 05/M02 A2956 RMK AO2 T00521023
cycle: 23

Station Type Date Time Source
KCMY TAF UTC NOAA

Error!


Example: see airport list